ΕΜΥ, Εθνική Μετεωρολογική Υπηρεσία - Δελτία Καιρού, Προγνώσεις

ΑΕΡΟΝΑΥΤΙΛΙΑ

GREEK AIRPORTS CODES

LGTP 271930Z AUTO 00000KT //// -RA ////// 10/08 Q1018 RE// RMK 0.0MM=

EUROPEAN AIRPORTS CODES